Latest Coastal Weather Observations for Rowley Shoals

IDW60701

Issued at 6:13 am WST Thursday 23 March 2017 (issued every 10 minutes, with the page automatically refreshed every 10 minutes)

About coastal observations | Map of coastal stations | Coastal observations for WA | Marine services | Other Formats
Station Details ID: 200713 Name: ROWLEY SHOALS Lat: -17.52 Lon: 118.95 Height: 0.0 m
Data from the previous 72 hours. | See also: Recent months at Rowley Shoals
Date/Time
WST
Temp
°C
Wind Pressure Rain since
9am
mm
Weather Cloud Vis
km
Sea
Height
m
Swell
Dir  Spd
kts
Gust
kts
hPa Trend Height
m
Period
s
Dir
23/06:00am 27.0 NW 19 23 1002.1 - - - - - - - - -
23/05:30am 26.8 WNW 22 27 1001.7 - - - - - - - - -
23/05:18am 26.7 NW 21 30 1001.7 - - - - - - - - -
23/05:16am 27.1 NW 20 30 1001.6 - - - - - - - - -
23/05:15am 27.9 NNW 19 27 1001.5 - - - - - - - - -
23/05:00am 27.8 NW 18 21 1001.5 - - - - - - - - -
23/04:30am 26.3 NW 27 33 1001.1 - - - - - - - - -
23/04:22am 28.0 NNW 21 31 1001.0 - - - - - - - - -
23/04:00am 28.5 NNW 21 25 1001.0 - - - - - - - - -
23/03:30am 28.5 NNW 23 27 1001.0 - - - - - - - - -
23/03:09am 28.5 NW 23 33 1000.8 - - - - - - - - -
23/03:00am 29.5 NW 23 28 1000.9 - - - - - - - - -
23/02:30am 28.1 NNW 25 32 1000.6 - - - - - - - - -
23/02:00am 27.2 NNW 25 32 1000.8 - - - - - - - - -
23/01:57am 26.7 NW 25 32 1001.1 - - - - - - - - -
23/01:30am 27.8 NW 25 30 1001.6 - - - - - - - - -
23/01:00am 28.6 NNW 21 25 1001.6 - - - - - - - - -
23/12:30am 26.5 N 11 17 1002.2 - - - - - - - - -
23/12:00am 26.1 NNW 22 26 1002.9 - - - - - - - - -
 
Date/Time
WST
Temp
°C
Wind Pressure Rain since
9am
mm
Weather Cloud Vis
km
Sea
Height
m
Swell
Dir  Spd
kts
Gust
kts
hPa Trend Height
m
Period
s
Dir
22/11:35pm 28.3 NNW 18 31 1003.0 - - - - - - - - -
22/11:30pm 27.7 NNW 18 21 1003.1 - - - - - - - - -
22/11:00pm 27.0 WNW 20 25 1003.2 - - - - - - - - -
22/10:43pm 26.5 NNW 23 38 1003.1 - - - - - - - - -
22/10:41pm 28.1 N 21 32 1003.3 - - - - - - - - -
22/10:30pm 28.6 N 19 23 1003.3 - - - - - - - - -
22/10:00pm 28.2 N 19 22 1002.9 - - - - - - - - -
22/09:30pm 27.1 NNW 21 25 1003.6 - - - - - - - - -
22/09:00pm 28.3 N 19 25 1003.4 - - - - - - - - -
22/08:53pm 27.7 N 15 25 1003.5 - - - - - - - - -
22/08:30pm 26.8 N 21 24 1003.5 - - - - - - - - -
22/08:18pm 26.6 N 19 31 1003.3 - - - - - - - - -
22/08:00pm 27.6 N 21 25 1003.2 - - - - - - - - -
22/07:30pm 28.9 N 19 23 1003.2 - - - - - - - - -
22/07:00pm 29.0 N 18 21 1002.8 - - - - - - - - -
22/06:30pm 29.0 N 18 21 1002.5 - - - - - - - - -
22/06:00pm 29.0 NNW 18 21 1002.3 - - - - - - - - -
22/05:30pm 29.0 N 20 23 1001.9 - - - - - - - - -
22/05:00pm 29.0 N 19 22 1001.7 - - - - - - - - -
22/04:30pm 29.0 N 20 24 1001.6 - - - - - - - - -
22/04:00pm 28.9 N 20 23 1001.5 - - - - - - - - -
22/03:30pm 29.2 N 20 23 1001.6 - - - - - - - - -
22/03:00pm 29.0 N 19 23 1001.6 - - - - - - - - -
22/02:30pm 28.7 N 22 26 1001.7 - - - - - - - - -
22/02:00pm 28.7 NNE 23 27 1001.7 - - - - - - - - -
22/01:30pm 29.3 NNE 23 27 1002.1 - - - - - - - - -
22/01:00pm 29.5 NNE 21 26 1002.3 - - - - - - - - -
22/12:30pm 29.3 NNE 22 26 1003.0 - - - - - - - - -
22/12:00pm 29.3 NNE 22 26 1003.3 - - - - - - - - -
22/11:30am 29.0 NNE 22 25 1004.0 - - - - - - - - -
22/11:00am 29.3 NNE 21 25 1004.6 - - - - - - - - -
22/10:30am 29.1 NE 20 23 1005.0 - - - - - - - - -
22/10:00am 29.0 NE 20 23 1005.0 - - - - - - - - -
22/09:30am 28.9 NE 20 24 1005.1 - - - - - - - - -
22/09:00am 28.8 NE 19 22 1005.0 - - - - - - - - -
22/08:30am 28.9 NNE 19 22 1005.0 - - - - - - - - -
22/08:00am 28.8 NNE 21 23 1004.9 - - - - - - - - -
22/07:30am 28.7 NNE 20 23 1005.2 - - - - - - - - -
22/07:00am 28.7 NNE 20 24 1004.6 - - - - - - - - -
22/06:30am 28.7 NNE 20 22 1004.3 - - - - - - - - -
22/06:00am 28.7 NNE 19 23 1004.2 - - - - - - - - -
22/05:30am 28.8 NNE 17 21 1003.7 - - - - - - - - -
22/05:00am 28.5 NNE 15 16 1003.8 - - - - - - - - -
22/04:30am 28.5 NNE 12 15 1003.6 - - - - - - - - -
22/04:00am 28.0 N 12 14 1003.6 - - - - - - - - -
22/03:30am 28.2 N 15 17 1003.8 - - - - - - - - -
22/03:00am 27.3 N 19 22 1003.7 - - - - - - - - -
22/02:30am 27.9 NNW 18 22 1004.1 - - - - - - - - -
22/02:00am 29.4 NNE 14 16 1004.0 - - - - - - - - -
22/01:30am 27.9 NNW 14 16 1004.6 - - - - - - - - -
22/01:00am 28.7 NNE 8 10 1005.0 - - - - - - - - -
22/12:30am 27.3 N 10 12 1005.2 - - - - - - - - -
22/12:01am 26.4 N 15 25 1005.1 - - - - - - - - -
22/12:00am 24.7 NNE 14 24 1005.4 - - - - - - - - -
 
Date/Time
WST
Temp
°C
Wind Pressure Rain since
9am
mm
Weather Cloud Vis
km
Sea
Height
m
Swell
Dir  Spd
kts
Gust
kts
hPa Trend Height
m
Period
s
Dir
21/11:30pm 29.0 NNE 11 13 1005.5 - - - - - - - - -
21/11:00pm 28.9 NNE 11 15 1005.6 - - - - - - - - -
21/10:30pm 28.8 NE 13 16 1005.8 - - - - - - - - -
21/10:00pm 28.7 NE 13 15 1005.6 - - - - - - - - -
21/09:30pm 28.5 NE 13 15 1005.7 - - - - - - - - -
21/09:00pm 28.3 NE 15 17 1005.5 - - - - - - - - -
21/08:30pm 28.4 NE 15 18 1005.5 - - - - - - - - -
21/08:00pm 28.6 NE 17 19 1005.3 - - - - - - - - -
21/07:30pm 28.9 NE 18 21 1004.8 - - - - - - - - -
21/07:00pm 29.1 NE 15 18 1004.4 - - - - - - - - -
21/06:30pm 29.0 NE 18 20 1004.1 - - - - - - - - -
21/06:00pm 29.1 ENE 18 22 1003.9 - - - - - - - - -
21/05:30pm 28.7 ENE 15 18 1003.8 - - - - - - - - -
21/05:00pm 29.0 ENE 15 17 1003.5 - - - - - - - - -
21/04:30pm 28.8 ENE 18 22 1003.8 - - - - - - - - -
21/04:00pm 29.0 ENE 19 22 1003.5 - - - - - - - - -
21/03:30pm 29.2 ENE 19 24 1003.5 - - - - - - - - -
21/03:00pm 29.5 ENE 18 22 1003.6 - - - - - - - - -
21/02:30pm 29.7 ENE 19 23 1004.0 - - - - - - - - -
21/02:00pm 29.8 ENE 18 21 1004.1 - - - - - - - - -
21/01:30pm 29.7 ENE 18 21 1004.4 - - - - - - - - -
21/01:00pm 30.0 E 19 23 1004.5 - - - - - - - - -
21/12:30pm 30.0 E 17 19 1005.1 - - - - - - - - -
21/12:00pm 30.1 E 16 19 1005.1 - - - - - - - - -
21/11:30am 30.1 E 17 20 1005.7 - - - - - - - - -
21/11:00am 29.9 E 14 16 1005.7 - - - - - - - - -
21/10:30am 29.7 E 13 15 1006.8 - - - - - - - - -
21/10:00am 29.7 ENE 14 15 1006.8 - - - - - - - - -
21/09:30am 29.8 E 12 13 1007.2 - - - - - - - - -
21/09:00am 29.9 E 11 13 1007.0 - - - - - - - - -
21/08:30am 30.1 E 9 11 1007.1 - - - - - - - - -
21/08:00am 30.2 E 9 10 1006.8 - - - - - - - - -
21/07:30am 30.1 E 9 10 1006.5 - - - - - - - - -
21/07:00am 29.9 E 7 9 1005.9 - - - - - - - - -
21/06:30am 29.8 ESE 6 8 1005.7 - - - - - - - - -
21/06:00am 29.7 ESE 5 6 1005.4 - - - - - - - - -
21/05:30am 29.6 CALM 0 0 1005.7 - - - - - - - - -
21/05:00am 29.7 NE 2 4 1005.7 - - - - - - - - -
21/04:30am 29.8 NNE 3 4 1005.9 - - - - - - - - -
21/04:00am 29.9 NNE 3 5 1005.7 - - - - - - - - -
21/03:30am 29.9 N 3 4 1005.6 - - - - - - - - -
21/03:00am 29.9 NNW 4 6 1005.4 - - - - - - - - -
21/02:30am 30.0 N 5 5 1005.7 - - - - - - - - -
21/02:00am 30.0 NNW 4 6 1005.8 - - - - - - - - -
21/01:30am 30.2 N 7 8 1006.3 - - - - - - - - -
21/01:00am 30.3 N 6 7 1006.5 - - - - - - - - -
21/12:30am 30.2 N 6 7 1006.4 - - - - - - - - -
21/12:00am 30.2 N 5 6 1006.3 - - - - - - - - -
 
Date/Time
WST
Temp
°C
Wind Pressure Rain since
9am
mm
Weather Cloud Vis
km
Sea
Height
m
Swell
Dir  Spd
kts
Gust
kts
hPa Trend Height
m
Period
s
Dir
20/11:30pm 30.1 NNW 5 7 1006.8 - - - - - - - - -
20/11:00pm 30.1 NNW 6 7 1006.8 - - - - - - - - -
20/10:30pm 30.2 N 4 5 1007.0 - - - - - - - - -
20/10:00pm 30.2 N 4 5 1007.0 - - - - - - - - -
20/09:30pm 30.1 CALM 0 0 1007.1 - - - - - - - - -
20/09:00pm 30.2 CALM 0 0 1006.8 - - - - - - - - -
20/08:30pm 30.2 CALM 0 0 1006.9 - - - - - - - - -
20/08:00pm 30.4 CALM 0 0 1006.8 - - - - - - - - -
20/07:30pm 30.4 CALM 0 0 1006.5 - - - - - - - - -
20/07:00pm 30.4 CALM 0 0 1006.1 - - - - - - - - -
20/06:30pm 30.5 SSE 2 3 1005.9 - - - - - - - - -
20/06:00pm 30.7 S 6 7 1005.4 - - - - - - - - -
20/05:30pm 31.0 S 6 8 1004.7 - - - - - - - - -
20/05:00pm 31.1 S 6 7 1004.4 - - - - - - - - -
20/04:30pm 31.1 S 4 6 1004.2 - - - - - - - - -
20/04:00pm 30.9 S 4 6 1004.0 - - - - - - - - -
20/03:30pm 30.9 SSE 5 6 1004.3 - - - - - - - - -
20/03:00pm 31.3 S 4 5 1003.9 - - - - - - - - -
20/02:30pm 31.1 S 1 4 1004.2 - - - - - - - - -
20/02:00pm 31.0 S 4 5 1004.2 - - - - - - - - -
20/01:30pm 30.7 SSW 3 4 1004.9 - - - - - - - - -
20/01:00pm 30.8 SSE 4 6 1005.2 - - - - - - - - -
20/12:30pm 30.4 ENE 2 4 1005.9 - - - - - - - - -
20/12:00pm 30.6 S 4 5 1006.2 - - - - - - - - -
20/11:30am 30.6 S 4 6 1007.1 - - - - - - - - -
20/11:00am 31.1 ESE 3 5 1007.4 - - - - - - - - -
20/10:30am 30.8 SSE 4 5 1008.0 - - - - - - - - -
20/10:00am 31.4 S 3 4 1008.0 - - - - - - - - -
20/09:30am 30.6 SSE 5 6 1008.7 - - - - - - - - -
20/09:00am 30.8 S 5 6 1008.7 - - - - - - - - -
20/08:30am 30.1 SSW 6 7 1008.7 - - - - - - - - -
20/08:00am 29.9 SSW 6 7 1008.5 - - - - - - - - -
20/07:30am 29.7 SSW 7 9 1008.4 - - - - - - - - -
20/07:00am 29.7 SW 10 11 1008.1 - - - - - - - - -
20/06:30am 29.6 SW 12 14 1007.7 - - - - - - - - -

Other Formats:

Comma delimited format used in spreadsheet applications
http://www.bom.gov.au/fwo/IDW60701/IDW60701.94207.axf

JavaScript Object Notation format (JSON) in row-major order
http://www.bom.gov.au/fwo/IDW60701/IDW60701.94207.json